Terminal Aerodrome Forecast
Issued by NWS

Home | Current Version | Previous Version | Text Only | Print | Product List | Glossary On
Versions: 1 2 3 4 5 6 7 8 9 10 11 12 13 14
739
FTUS43 KFGF 051900 AAA
TAFDVL
TAF AMD
KDVL 051900Z 0519/0618 22012KT P6SM SKC
     FM060000 23010KT P6SM FEW250
     FM061100 27007KT P6SM SCT250
     FM061300 30009KT P6SM SCT250
     FM061400 34011KT P6SM SCT250=

USA.gov is the U.S. government's official web portal to all federal, state and local government web resources and services.